Time;durP1;ratioP1;P1;durP2;ratioP2;P2;SDS_P1;SDS_P2;PMS_P1;PMS_P2;Temp;Humidity;BMP_temperature;BMP_pressure;BME280_temperature;BME280_humidity;BME280_pressure;Samples;Min_cycle;Max_cycle;Signal;HPM_P1;HPM_P2
2022/09/20 00:00:40;;;;;;;10.38;1.10;;;6.50;99.90;;;;;;5033832;28;20053;-33
2022/09/20 00:03:07;;;;;;;12.75;1.50;;;6.30;99.90;;;;;;5034345;28;20045;-33
2022/09/20 00:05:35;;;;;;;7.72;1.13;;;6.20;99.90;;;;;;5033787;28;20048;-33
2022/09/20 00:08:02;;;;;;;8.73;1.13;;;6.10;99.90;;;;;;5032614;28;20048;-33
2022/09/20 00:10:29;;;;;;;9.98;1.10;;;6.10;99.90;;;;;;5033701;28;20388;-33
2022/09/20 00:12:56;;;;;;;9.35;1.40;;;5.70;99.90;;;;;;5032574;28;20049;-32
2022/09/20 00:15:21;;;;;;;8.32;1.00;;;6.00;99.90;;;;;;5032902;28;20048;-33
2022/09/20 00:17:47;;;;;;;12.00;1.38;;;5.80;99.10;;;;;;5033658;28;20045;-33
2022/09/20 00:20:13;;;;;;;6.88;1.25;;;6.20;99.90;;;;;;5033627;28;20045;-33
2022/09/20 00:22:38;;;;;;;10.27;1.38;;;5.80;99.90;;;;;;5032425;28;20057;-33
2022/09/20 00:25:05;;;;;;;5.10;1.17;;;5.40;97.10;;;;;;5033542;28;20107;-32
2022/09/20 00:27:30;;;;;;;7.25;1.30;;;5.60;54.50;;;;;;5033528;28;20088;-32
2022/09/20 00:29:57;;;;;;;8.85;1.27;;;5.50;20.40;;;;;;5034075;28;20085;-33
2022/09/20 00:32:23;;;;;;;7.95;1.05;;;5.50;99.90;;;;;;5033512;28;20053;-32
2022/09/20 00:35:06;;;;;;;10.52;1.40;;;5.30;99.90;;;;;;5032301;28;20107;-33
2022/09/20 00:37:42;;;;;;;;;;;5.50;99.90;;;;;;5033465;28;20041;-33
2022/09/20 00:40:14;;;;;;;7.88;1.08;;;5.50;99.90;;;;;;5033465;28;19975;-33
2022/09/20 00:42:40;;;;;;;8.35;1.33;;;5.40;99.90;;;;;;5034041;28;20095;-32
2022/09/20 00:45:17;;;;;;;10.95;1.50;;;5.70;99.90;;;;;;5033594;28;20057;-32
2022/09/20 00:47:51;;;;;;;6.45;1.60;;;5.10;99.90;;;;;;5032968;28;20384;-33
2022/09/20 00:50:16;;;;;;;;;;;5.00;99.90;;;;;;5033894;28;20050;-32
2022/09/20 00:52:45;;;;;;;11.30;1.35;;;4.90;99.90;;;;;;5033619;28;20378;-33
2022/09/20 00:55:11;;;;;;;9.32;1.33;;;4.80;99.90;;;;;;5033520;28;20561;-32
2022/09/20 00:57:38;;;;;;;9.38;1.55;;;4.80;99.90;;;;;;5033510;28;20045;-32
2022/09/20 01:00:08;;;;;;;7.65;1.30;;;4.80;99.90;;;;;;5033538;28;20037;-32
2022/09/20 01:02:37;;;;;;;8.05;2.10;;;4.90;99.90;;;;;;5033255;28;20049;-32
2022/09/20 01:05:04;;;;;;;13.43;2.10;;;4.70;99.90;;;;;;5033508;28;20054;-32
2022/09/20 01:07:30;;;;;;;8.65;1.63;;;4.80;99.90;;;;;;5032775;28;20387;-33
2022/09/20 01:09:56;;;;;;;13.40;2.58;;;4.40;99.90;;;;;;5033153;28;20046;-33
2022/09/20 01:12:28;;;;;;;7.63;1.52;;;4.90;99.90;;;;;;5033131;28;20052;-33
2022/09/20 01:14:55;;;;;;;9.68;2.15;;;4.70;99.90;;;;;;5033446;28;20049;-33
2022/09/20 01:17:24;;;;;;;8.93;1.73;;;5.00;99.90;;;;;;5033051;28;20091;-33
2022/09/20 01:20:08;;;;;;;12.75;2.13;;;4.80;99.90;;;;;;5032658;28;20081;-33
2022/09/20 01:23:10;;;;;;;12.60;1.48;;;4.90;99.90;;;;;;5035107;28;20061;-32
2022/09/20 01:25:57;;;;;;;7.93;1.70;;;4.50;99.90;;;;;;5036710;28;20499;-32
2022/09/20 01:28:25;;;;;;;11.75;1.60;;;4.70;99.90;;;;;;5037215;28;20054;-32
2022/09/20 01:31:03;;;;;;;6.90;1.25;;;4.20;99.90;;;;;;5035588;28;20118;-32
2022/09/20 01:33:45;;;;;;;5.97;1.35;;;4.80;99.90;;;;;;5036575;28;20053;-32
2022/09/20 01:36:30;;;;;;;11.95;1.95;;;4.60;99.90;;;;;;5036418;28;20037;-32
2022/09/20 01:38:58;;;;;;;12.00;2.72;;;4.90;99.90;;;;;;5036748;28;20064;-33
2022/09/20 01:41:50;;;;;;;7.82;1.30;;;4.50;99.90;;;;;;5036394;28;20056;-32
2022/09/20 01:44:37;;;;;;;6.68;1.50;;;4.70;99.90;;;;;;5032660;28;20135;-33
2022/09/20 01:47:27;;;;;;;13.32;1.50;;;4.90;99.90;;;;;;5036543;28;20128;-34
2022/09/20 01:50:14;;;;;;;11.60;1.55;;;4.90;99.90;;;;;;5036262;28;20050;-33
2022/09/20 01:53:06;;;;;;;12.48;2.40;;;4.50;99.90;;;;;;5035807;28;20049;-32
2022/09/20 01:55:53;;;;;;;4.97;1.67;;;4.60;99.90;;;;;;5035697;28;20472;-32
2022/09/20 01:58:30;;;;;;;12.18;2.50;;;4.70;99.90;;;;;;5036093;28;20062;-32
2022/09/20 02:01:33;;;;;;;25.98;4.00;;;4.70;99.90;;;;;;5036044;28;20136;-33
2022/09/20 02:04:14;;;;;;;14.00;2.20;;;5.00;99.90;;;;;;5035020;28;20115;-32
2022/09/20 02:07:07;;;;;;;7.05;1.70;;;4.80;99.90;;;;;;5035916;28;20048;-32
2022/09/20 02:09:48;;;;;;;11.38;2.03;;;5.00;99.90;;;;;;5035152;28;20546;-33
2022/09/20 02:12:45;;;;;;;9.82;1.75;;;5.00;99.90;;;;;;5036427;28;20365;-33
2022/09/20 02:15:41;;;;;;;15.02;1.80;;;5.30;99.90;;;;;;5036362;28;20050;-32
2022/09/20 02:18:31;;;;;;;7.05;1.50;;;5.30;99.90;;;;;;5036282;28;20061;-33
2022/09/20 02:21:22;;;;;;;9.17;1.63;;;4.80;99.90;;;;;;5035654;28;20107;-32
2022/09/20 02:24:12;;;;;;;4.97;1.40;;;4.50;99.90;;;;;;5036196;28;20158;-33
2022/09/20 02:26:46;;;;;;;7.13;1.48;;;4.50;99.90;;;;;;5035163;28;20080;-32
2022/09/20 02:29:33;;;;;;;6.55;1.58;;;5.10;99.90;;;;;;5035858;28;20107;-32
2022/09/20 02:32:32;;;;;;;8.43;1.35;;;4.70;99.90;;;;;;5035782;28;20049;-32
2022/09/20 02:35:12;;;;;;;10.48;2.20;;;5.20;99.90;;;;;;5022849;28;20571;-33
2022/09/20 02:37:44;;;;;;;9.85;2.00;;;4.70;99.90;;;;;;5036138;28;20119;-33
2022/09/20 02:40:23;;;;;;;6.18;1.45;;;4.60;99.90;;;;;;5035609;28;20068;-32
2022/09/20 02:43:17;;;;;;;8.82;1.73;;;4.80;99.90;;;;;;5035285;28;20057;-33
2022/09/20 02:46:10;;;;;;;11.45;2.08;;;4.90;99.90;;;;;;5035807;28;20049;-32
2022/09/20 02:48:44;;;;;;;13.70;2.42;;;4.70;99.90;;;;;;5035113;28;20049;-32
2022/09/20 02:51:25;;;;;;;10.20;2.30;;;4.80;99.90;;;;;;5034699;28;20506;-33
2022/09/20 02:54:19;;;;;;;8.93;2.35;;;4.60;99.90;;;;;;5034991;28;20057;-33
2022/09/20 02:57:01;;;;;;;5.00;1.52;;;4.60;99.90;;;;;;5029910;28;20103;-32
2022/09/20 02:59:37;;;;;;;6.97;1.48;;;4.50;99.90;;;;;;5035810;28;20076;-33
2022/09/20 03:02:26;;;;;;;8.18;2.13;;;4.70;99.90;;;;;;5035742;28;20057;-32
2022/09/20 03:05:18;;;;;;;11.50;2.17;;;4.90;99.90;;;;;;5034834;28;20037;-32
2022/09/20 03:08:23;;;;;;;10.43;2.08;;;4.50;99.90;;;;;;5035343;28;20045;-33
2022/09/20 03:11:07;;;;;;;9.27;1.95;;;4.90;99.90;;;;;;5033899;28;20089;-34
2022/09/20 03:14:07;;;;;;;7.97;2.00;;;5.00;99.90;;;;;;5035509;28;20428;-32
2022/09/20 03:17:01;;;;;;;11.55;2.58;;;5.30;99.90;;;;;;5035356;28;20045;-33
2022/09/20 03:19:51;;;;;;;8.00;2.00;;;4.60;99.90;;;;;;5035149;28;20052;-33
2022/09/20 03:22:29;;;;;;;6.60;2.08;;;6.00;99.90;;;;;;5034458;28;20049;-34
2022/09/20 03:24:57;;;;;;;4.60;1.55;;;6.50;99.90;;;;;;5034400;28;20049;-33
2022/09/20 03:27:41;;;;;;;11.98;2.03;;;5.80;99.90;;;;;;5034379;28;20049;-33
2022/09/20 03:30:16;;;;;;;17.90;2.25;;;6.20;99.90;;;;;;5034402;28;20573;-33
2022/09/20 03:33:15;;;;;;;7.00;1.80;;;6.20;99.90;;;;;;5034665;28;20060;-33
2022/09/20 03:36:09;;;;;;;10.70;2.13;;;6.70;99.90;;;;;;5034213;28;20563;-33
2022/09/20 03:38:35;;;;;;;11.75;3.38;;;6.80;99.90;;;;;;5033852;28;20088;-36
2022/09/20 03:41:07;;;;;;;6.10;1.60;;;6.80;99.90;;;;;;5034191;28;20448;-33
2022/09/20 03:43:48;;;;;;;8.50;2.03;;;7.10;99.90;;;;;;5035260;28;20049;-34
2022/09/20 03:46:35;;;;;;;5.53;1.80;;;7.40;99.90;;;;;;5034142;28;20057;-34
2022/09/20 03:49:40;;;;;;;11.20;2.17;;;7.70;99.90;;;;;;5033019;28;20053;-33
2022/09/20 03:52:13;;;;;;;7.28;1.63;;;7.60;99.90;;;;;;5033679;28;20415;-34
2022/09/20 03:55:01;;;;;;;7.07;2.22;;;7.80;99.90;;;;;;5033677;28;20575;-36
2022/09/20 03:58:12;;;;;;;7.15;1.17;;;7.60;99.90;;;;;;5033898;28;20049;-34
2022/09/20 04:00:40;;;;;;;8.70;1.85;;;7.60;99.90;;;;;;5023998;28;20095;-33
2022/09/20 04:03:19;;;;;;;13.90;1.63;;;8.00;99.90;;;;;;5034660;28;20083;-34
2022/09/20 04:06:06;;;;;;;13.77;1.90;;;8.10;99.90;;;;;;5034427;28;20056;-34
2022/09/20 04:09:25;;;;;;;14.40;1.35;;;7.70;99.90;;;;;;5034412;28;20060;-35
2022/09/20 04:12:18;;;;;;;11.25;1.85;;;8.00;99.90;;;;;;5029476;28;20462;-35
2022/09/20 04:15:19;;;;;;;7.65;1.67;;;8.30;99.90;;;;;;5034317;28;20137;-35
2022/09/20 04:18:09;;;;;;;5.60;1.30;;;8.20;99.90;;;;;;5025092;28;20050;-33
2022/09/20 04:21:15;;;;;;;11.23;2.58;;;8.40;99.90;;;;;;5034623;28;20159;-34
2022/09/20 04:24:02;;;;;;;9.27;1.35;;;8.00;99.90;;;;;;5023932;28;20088;-35
2022/09/20 04:26:31;;;;;;;9.45;1.80;;;8.40;99.90;;;;;;5033632;28;20048;-33
2022/09/20 04:29:13;;;;;;;12.27;1.67;;;8.50;99.90;;;;;;5033137;28;20458;-33
2022/09/20 04:31:49;;;;;;;10.02;1.98;;;8.30;99.90;;;;;;5033590;28;20060;-35
2022/09/20 04:37:31;;;;;;;9.07;1.45;;;8.10;99.90;;;;;;5033420;28;20050;-33
2022/09/20 04:40:25;;;;;;;6.43;1.45;;;8.40;99.90;;;;;;5032637;28;20467;-33
2022/09/20 04:43:27;;;;;;;12.52;1.88;;;8.20;99.90;;;;;;5033494;28;20041;-34
2022/09/20 04:45:59;;;;;;;5.80;1.45;;;8.50;99.90;;;;;;5031831;28;20057;-34
2022/09/20 04:48:46;;;;;;;10.65;1.83;;;8.20;99.90;;;;;;5033898;28;20045;-34
2022/09/20 04:51:29;;;;;;;7.05;1.30;;;8.10;99.90;;;;;;5033049;28;20578;-35
2022/09/20 04:54:37;;;;;;;7.38;1.23;;;8.50;99.90;;;;;;5033406;28;20053;-34
2022/09/20 04:57:25;;;;;;;13.45;1.95;;;8.60;99.90;;;;;;5033695;28;20387;-35
2022/09/20 05:00:11;;;;;;;8.95;1.20;;;8.20;99.90;;;;;;5038037;28;20380;-34
2022/09/20 05:02:51;;;;;;;6.20;1.25;;;8.60;99.90;;;;;;5037712;28;20060;-34
2022/09/20 05:05:35;;;;;;;8.75;1.48;;;8.20;99.90;;;;;;5037360;28;20084;-34
2022/09/20 05:08:21;;;;;;;6.57;1.52;;;8.30;99.90;;;;;;5037235;28;20050;-35
2022/09/20 05:11:16;;;;;;;7.35;1.83;;;8.50;99.90;;;;;;5035961;28;20056;-34
2022/09/20 05:14:07;;;;;;;5.15;1.10;;;8.20;99.90;;;;;;5036933;28;20503;-34
2022/09/20 05:16:50;;;;;;;9.27;1.20;;;8.50;99.90;;;;;;5036843;28;20103;-34
2022/09/20 05:19:53;;;;;;;7.72;1.75;;;8.60;99.90;;;;;;5035585;28;20046;-34
2022/09/20 05:22:53;;;;;;;7.20;1.42;;;9.00;99.90;;;;;;5036790;28;20055;-34
2022/09/20 05:25:43;;;;;;;7.88;1.42;;;8.70;99.90;;;;;;5036726;28;20079;-36
2022/09/20 05:28:14;;;;;;;10.68;1.45;;;8.40;99.90;;;;;;5036665;28;20092;-34
2022/09/20 05:31:32;;;;;;;6.20;1.33;;;8.20;99.90;;;;;;5037182;28;20045;-35
2022/09/20 05:34:25;;;;;;;11.20;1.75;;;8.40;99.90;;;;;;5027554;28;20136;-33
2022/09/20 05:37:11;;;;;;;5.55;1.52;;;8.40;99.90;;;;;;5037271;28;20046;-33
2022/09/20 05:39:48;;;;;;;9.45;1.70;;;8.20;99.90;;;;;;5037018;28;20439;-34
2022/09/20 05:42:22;;;;;;;6.07;1.70;;;8.50;99.90;;;;;;5036973;28;20050;-36
2022/09/20 05:45:20;;;;;;;7.18;1.55;;;8.20;99.90;;;;;;5036287;28;20064;-34
2022/09/20 05:48:09;;;;;;;4.82;1.20;;;8.00;99.90;;;;;;5036366;28;20056;-33
2022/09/20 05:51:05;;;;;;;8.02;1.60;;;8.10;99.90;;;;;;5035824;28;20103;-34
2022/09/20 05:53:47;;;;;;;6.40;1.70;;;8.20;99.90;;;;;;5036138;28;20045;-33
2022/09/20 05:56:15;;;;;;;8.23;1.63;;;7.90;99.90;;;;;;5036681;28;20088;-35
2022/09/20 05:59:00;;;;;;;13.07;2.00;;;8.10;99.90;;;;;;5036312;28;20380;-34
2022/09/20 06:01:40;;;;;;;7.32;1.90;;;8.00;99.90;;;;;;5036357;28;20050;-36
2022/09/20 06:04:16;;;;;;;6.13;2.03;;;8.10;99.90;;;;;;5036590;28;20104;-34
2022/09/20 06:07:02;;;;;;;9.10;2.20;;;8.10;99.90;;;;;;5035989;28;20443;-34
2022/09/20 06:09:48;;;;;;;4.10;1.35;;;8.20;99.90;;;;;;5035347;28;20558;-34
2022/09/20 06:12:47;;;;;;;8.25;1.75;;;8.10;99.90;;;;;;5034933;28;20372;-34
2022/09/20 06:15:24;;;;;;;11.10;1.60;;;8.40;99.90;;;;;;5035821;28;20053;-34
2022/09/20 06:18:17;;;;;;;8.57;1.88;;;8.20;99.90;;;;;;5035725;28;20043;-35
2022/09/20 06:21:02;;;;;;;8.02;1.70;;;8.00;99.90;;;;;;5027257;28;20140;-37
2022/09/20 06:23:30;;;;;;;5.05;1.65;;;8.40;99.90;;;;;;5035327;28;20451;-35
2022/09/20 06:26:01;;;;;;;5.35;1.60;;;8.70;99.90;;;;;;5034905;28;20151;-36
2022/09/20 06:28:34;;;;;;;9.57;1.70;;;8.80;99.90;;;;;;5036173;28;20045;-35
2022/09/20 06:31:00;;;;;;;8.15;1.55;;;8.80;99.90;;;;;;5036112;28;20048;-34
2022/09/20 06:33:28;;;;;;;7.60;1.50;;;9.20;99.90;;;;;;5036019;28;20045;-34
2022/09/20 06:35:54;;;;;;;7.05;1.73;;;9.00;99.90;;;;;;5035343;28;20255;-37
2022/09/20 06:41:27;;;;;;;8.02;1.25;;;9.20;99.90;;;;;;5035276;28;20491;-38
2022/09/20 06:44:00;;;;;;;6.65;1.38;;;9.60;99.90;;;;;;5034017;28;20088;-39
2022/09/20 06:46:27;;;;;;;;;;;10.10;99.90;;;;;;5036291;28;20049;-40
2022/09/20 06:48:54;;;;;;;7.22;1.30;;;9.80;99.90;;;;;;5035135;28;19921;-40
2022/09/20 06:51:21;;;;;;;11.90;1.30;;;10.30;99.90;;;;;;5035125;28;20052;-40
2022/09/20 06:53:48;;;;;;;4.13;1.10;;;10.30;99.90;;;;;;5035033;28;20150;-40
2022/09/20 06:56:19;;;;;;;5.05;1.17;;;10.70;99.90;;;;;;5034896;28;20048;-40
2022/09/20 06:58:46;;;;;;;5.45;1.13;;;10.60;99.90;;;;;;5035230;28;20483;-40
2022/09/20 07:01:12;;;;;;;4.82;1.35;;;10.90;99.90;;;;;;5034579;28;20510;-41
2022/09/20 07:03:39;;;;;;;3.47;1.00;;;10.40;99.90;;;;;;5035403;28;20403;-40
2022/09/20 07:06:06;;;;;;;7.57;1.70;;;10.80;99.90;;;;;;5034377;28;20049;-40
2022/09/20 07:08:32;;;;;;;5.50;1.13;;;10.80;99.90;;;;;;5034793;28;20049;-40
2022/09/20 07:11:07;;;;;;;6.97;1.95;;;10.80;99.90;;;;;;5034725;28;20131;-40
2022/09/20 07:13:33;;;;;;;7.47;1.30;;;10.80;99.90;;;;;;5033710;28;20037;-40
2022/09/20 07:16:11;;;;;;;8.15;1.17;;;11.00;99.90;;;;;;5035047;28;20091;-40
2022/09/20 07:18:38;;;;;;;8.90;1.25;;;11.00;99.90;;;;;;5034709;28;20141;-40
2022/09/20 07:21:05;;;;;;;5.53;1.15;;;11.00;99.90;;;;;;5032954;28;20136;-41
2022/09/20 07:23:30;;;;;;;4.30;1.50;;;11.00;99.90;;;;;;5033489;28;20058;-41
2022/09/20 07:25:58;;;;;;;10.15;1.45;;;11.20;99.90;;;;;;5034477;28;20045;-41
2022/09/20 07:28:24;;;;;;;8.30;1.33;;;11.20;99.90;;;;;;5034248;28;20132;-41
2022/09/20 07:30:50;;;;;;;10.07;1.20;;;11.20;99.90;;;;;;5034518;28;20045;-40
2022/09/20 07:33:20;;;;;;;7.68;1.83;;;11.40;99.90;;;;;;5033149;28;20080;-40
2022/09/20 07:35:47;;;;;;;6.68;1.08;;;11.40;99.90;;;;;;5034175;28;20041;-40
2022/09/20 07:38:14;;;;;;;6.03;0.85;;;11.50;99.90;;;;;;5034519;28;20050;-40
2022/09/20 07:40:40;;;;;;;5.78;0.98;;;11.50;99.90;;;;;;5033075;28;20048;-40
2022/09/20 07:43:06;;;;;;;8.90;1.00;;;11.60;99.90;;;;;;5034162;28;20180;-40
2022/09/20 07:45:34;;;;;;;5.03;0.80;;;11.60;99.90;;;;;;5034473;28;20597;-40
2022/09/20 07:48:04;;;;;;;4.60;0.70;;;11.70;99.90;;;;;;5034247;28;20057;-40
2022/09/20 07:50:31;;;;;;;7.80;0.70;;;11.90;99.90;;;;;;5033066;28;20049;-40
2022/09/20 07:52:57;;;;;;;6.57;1.27;;;12.10;99.90;;;;;;5033987;28;20046;-40
2022/09/20 07:55:23;;;;;;;5.13;0.50;;;12.40;99.90;;;;;;5033820;28;20072;-40
2022/09/20 07:57:49;;;;;;;7.53;1.02;;;12.60;99.90;;;;;;5033844;28;20052;-40
2022/09/20 08:00:16;;;;;;;4.38;0.73;;;12.80;99.90;;;;;;5033930;28;20050;-40
2022/09/20 08:02:44;;;;;;;6.28;0.65;;;12.80;1.00;;;;;;5034424;28;20445;-40
2022/09/20 08:05:10;;;;;;;9.07;0.95;;;12.90;99.90;;;;;;5033150;28;20545;-40
2022/09/20 08:07:36;;;;;;;6.20;0.80;;;13.10;99.90;;;;;;5034336;28;20038;-40
2022/09/20 08:10:02;;;;;;;7.15;0.98;;;13.20;99.90;;;;;;5034362;28;20120;-40
2022/09/20 08:12:28;;;;;;;7.63;1.48;;;13.20;99.90;;;;;;5033804;28;20084;-40
2022/09/20 08:14:54;;;;;;;7.75;1.27;;;13.50;99.90;;;;;;5033739;28;20514;-40
2022/09/20 08:17:20;;;;;;;6.15;0.93;;;13.60;99.90;;;;;;5033312;28;20483;-40
2022/09/20 08:19:46;;;;;;;9.70;0.95;;;13.90;1.00;;;;;;5033714;28;20128;-40
2022/09/20 08:22:12;;;;;;;6.57;0.88;;;14.00;99.90;;;;;;5032699;28;20042;-40
2022/09/20 08:24:38;;;;;;;5.72;0.70;;;13.90;1.00;;;;;;5034469;28;20483;-41
2022/09/20 08:27:04;;;;;;;7.18;1.23;;;13.80;1.00;;;;;;5033019;28;20081;-40
2022/09/20 08:29:30;;;;;;;5.03;0.85;;;13.70;1.00;;;;;;5033868;28;20042;-40
2022/09/20 08:31:59;;;;;;;7.43;0.70;;;13.70;1.00;;;;;;5034958;28;20050;-40
2022/09/20 08:34:24;;;;;;;6.75;1.77;;;13.80;1.00;;;;;;5038532;28;20049;-41
2022/09/20 08:36:55;;;;;;;6.80;1.00;;;14.00;99.90;;;;;;5037623;28;20485;-40
2022/09/20 08:39:22;;;;;;;6.93;1.15;;;14.30;99.90;;;;;;5036455;28;20041;-40
2022/09/20 08:42:17;;;;;;;5.15;0.73;;;14.60;1.00;;;;;;5037528;28;20099;-40
2022/09/20 08:44:56;;;;;;;3.83;0.65;;;14.60;1.00;;;;;;5035279;28;20061;-40
2022/09/20 08:47:29;;;;;;;4.57;0.60;;;14.60;36.60;;;;;;5037492;28;20049;-40
2022/09/20 08:49:58;;;;;;;4.15;0.90;;;14.90;99.90;;;;;;5037045;28;20499;-40
2022/09/20 08:52:36;;;;;;;6.22;0.70;;;15.20;99.90;;;;;;5037373;28;20042;-40
2022/09/20 08:55:03;;;;;;;4.35;0.60;;;15.40;1.00;;;;;;5037617;28;20081;-40
2022/09/20 08:57:32;;;;;;;5.00;0.90;;;15.60;1.00;;;;;;5036073;28;20054;-40
2022/09/20 09:00:03;;;;;;;5.28;0.65;;;15.60;1.00;;;;;;5036263;28;20484;-39
2022/09/20 09:02:31;;;;;;;3.65;0.65;;;15.90;99.90;;;;;;5037101;28;20053;-39
2022/09/20 09:04:57;;;;;;;2.70;0.63;;;16.40;99.90;;;;;;5036747;28;20437;-40
2022/09/20 09:07:24;;;;;;;6.18;1.05;;;16.10;99.90;;;;;;5037344;28;20038;-40
2022/09/20 09:09:53;;;;;;;8.30;1.17;;;16.20;1.00;;;;;;5037602;28;20136;-40
2022/09/20 09:12:26;;;;;;;4.38;1.05;;;17.00;1.00;;;;;;5035781;28;20060;-40
2022/09/20 09:14:57;;;;;;;6.40;1.20;;;17.90;99.90;;;;;;5035775;28;20046;-40
2022/09/20 09:17:29;;;;;;;7.43;0.90;;;18.30;1.00;;;;;;5036524;28;20084;-41
2022/09/20 09:19:56;;;;;;;;;;;18.90;99.90;;;;;;5035973;28;20099;-40
2022/09/20 09:22:44;;;;;;;5.13;0.52;;;18.90;99.90;;;;;;5036815;28;19921;-41
2022/09/20 09:25:25;;;;;;;5.15;1.00;;;19.40;1.00;;;;;;5035834;28;20491;-41
2022/09/20 09:28:11;;;;;;;4.18;0.52;;;19.40;99.90;;;;;;5036975;28;20404;-40
2022/09/20 09:30:39;;;;;;;3.67;0.40;;;19.50;99.90;;;;;;5036999;28;20095;-40
2022/09/20 09:33:24;;;;;;;6.13;0.90;;;20.00;99.90;;;;;;5036630;28;20080;-40
2022/09/20 09:36:12;;;;;;;4.07;0.50;;;19.70;99.90;;;;;;5037084;28;20431;-40
2022/09/20 09:38:40;;;;;;;5.53;0.47;;;19.90;80.20;;;;;;5036393;28;20045;-40
2022/09/20 09:41:25;;;;;;;3.83;0.77;;;20.10;99.90;;;;;;5036435;28;20049;-40
2022/09/20 09:44:15;;;;;;;3.22;0.57;;;19.90;9.70;;;;;;5035954;28;20056;-40
2022/09/20 09:46:41;;;;;;;4.53;0.47;;;20.10;1.00;;;;;;5036392;28;20499;-39
2022/09/20 09:49:21;;;;;;;4.38;0.50;;;19.60;99.90;;;;;;5036247;28;20081;-38
2022/09/20 09:52:12;;;;;;;6.22;0.98;;;19.30;99.90;;;;;;5037087;28;20060;-38
2022/09/20 09:54:47;;;;;;;7.15;1.48;;;19.70;68.00;;;;;;5036550;28;20060;-40
2022/09/20 09:57:45;;;;;;;3.22;0.68;;;19.90;1.00;;;;;;5036176;28;20052;-39
2022/09/20 10:00:19;;;;;;;3.60;0.43;;;20.30;1.00;;;;;;5036706;28;20379;-38
2022/09/20 10:03:06;;;;;;;4.70;0.70;;;20.30;92.90;;;;;;5035136;28;20052;-38
2022/09/20 10:05:31;;;;;;;4.72;0.85;;;20.40;74.70;;;;;;5036042;28;20048;-39
2022/09/20 10:08:11;;;;;;;5.50;0.90;;;20.10;62.60;;;;;;5036052;28;20053;-37
2022/09/20 10:11:06;;;;;;;3.58;0.57;;;20.10;1.00;;;;;;5034744;28;20049;-37
2022/09/20 10:13:53;;;;;;;3.67;0.57;;;19.90;1.00;;;;;;5034789;28;20479;-37
2022/09/20 10:16:19;;;;;;;3.97;0.63;;;20.50;86.00;;;;;;5035869;28;20053;-37
2022/09/20 10:18:52;;;;;;;6.78;1.00;;;21.10;99.90;;;;;;5036052;28;20403;-36
2022/09/20 10:21:29;;;;;;;3.90;1.08;;;21.10;85.70;;;;;;5035838;28;20049;-35
2022/09/20 10:24:19;;;;;;;6.35;0.90;;;21.10;63.60;;;;;;5035655;28;20488;-36
2022/09/20 10:26:47;;;;;;;4.75;0.93;;;20.80;54.30;;;;;;5034663;28;20060;-34
2022/09/20 10:29:25;;;;;;;8.52;0.90;;;20.70;99.90;;;;;;5034295;28;20050;-35
2022/09/20 10:31:56;;;;;;;6.30;0.70;;;22.00;99.90;;;;;;5035568;28;20049;-33
2022/09/20 10:34:49;;;;;;;5.10;0.73;;;22.10;99.90;;;;;;5035423;28;20488;-33
2022/09/20 10:37:39;;;;;;;4.18;0.98;;;23.10;99.90;;;;;;5035743;28;20050;-33
2022/09/20 10:40:14;;;;;;;4.78;0.70;;;22.50;99.90;;;;;;5035479;28;20060;-32
2022/09/20 10:45:37;;;;;;;7.50;1.00;;;19.90;99.90;;;;;;5035432;28;20060;-32
2022/09/20 10:48:07;;;;;;;6.65;1.08;;;19.10;94.50;;;;;;5035086;28;20363;-32
2022/09/20 10:50:51;;;;;;;8.05;1.23;;;18.80;99.40;;;;;;5035170;28;20407;-32
2022/09/20 10:53:34;;;;;;;8.20;1.02;;;18.70;66.40;;;;;;5035147;28;20041;-32
2022/09/20 10:56:27;;;;;;;7.20;1.05;;;19.10;43.50;;;;;;5034925;28;20041;-32
2022/09/20 10:59:11;;;;;;;4.70;0.90;;;19.00;99.90;;;;;;5035033;28;20091;-33
2022/09/20 11:02:03;;;;;;;6.18;0.95;;;18.70;98.60;;;;;;5034979;28;20645;-32
2022/09/20 11:04:39;;;;;;;6.95;0.90;;;18.90;99.90;;;;;;5032796;28;20164;-32
2022/09/20 11:07:52;;;;;;;6.82;1.05;;;19.90;30.20;;;;;;5034861;28;20506;-32
2022/09/20 11:10:24;;;;;;;5.32;0.60;;;20.90;22.40;;;;;;5030034;28;20057;-32
2022/09/20 11:13:01;;;;;;;5.40;0.80;;;21.60;51.10;;;;;;5035540;28;20396;-31
2022/09/20 11:15:34;;;;;;;7.20;0.95;;;21.50;66.20;;;;;;5035021;28;20079;-32
2022/09/20 11:18:11;;;;;;;3.65;0.70;;;20.90;90.90;;;;;;5034889;28;20124;-31
2022/09/20 11:20:46;;;;;;;4.40;1.02;;;20.80;90.50;;;;;;5034604;28;20507;-32
2022/09/20 11:23:26;;;;;;;7.93;0.63;;;21.40;98.40;;;;;;5034925;28;20049;-31
2022/09/20 11:25:56;;;;;;;2.38;0.52;;;20.60;52.30;;;;;;5034816;28;20057;-31
2022/09/20 11:28:27;;;;;;;4.47;0.80;;;19.60;19.70;;;;;;5034443;28;20041;-32
2022/09/20 11:31:08;;;;;;;3.38;0.38;;;19.20;33.30;;;;;;5034686;28;20052;-31
2022/09/20 11:34:02;;;;;;;4.60;0.50;;;19.90;63.60;;;;;;5034675;28;20049;-32
2022/09/20 11:36:56;;;;;;;2.08;0.43;;;20.50;91.10;;;;;;5034245;28;20041;-31
2022/09/20 11:39:46;;;;;;;3.17;0.40;;;20.90;26.40;;;;;;5034289;28;20049;-31
2022/09/20 11:42:26;;;;;;;3.67;0.50;;;21.00;42.50;;;;;;5034250;28;20042;-30
2022/09/20 11:44:53;;;;;;;5.35;0.60;;;20.30;29.00;;;;;;5033052;28;20069;-31
2022/09/20 11:47:22;;;;;;;4.70;0.50;;;20.40;34.40;;;;;;5034152;28;20057;-31
2022/09/20 11:50:33;;;;;;;4.47;0.63;;;20.70;65.00;;;;;;5033601;28;20403;-31
2022/09/20 11:53:07;;;;;;;8.00;0.73;;;21.00;91.80;;;;;;5034712;28;20056;-31
2022/09/20 11:55:43;;;;;;;3.13;0.40;;;21.80;75.80;;;;;;5035158;28;20091;-31
2022/09/20 11:58:19;;;;;;;2.50;0.50;;;21.40;38.70;;;;;;5033994;28;20483;-31
2022/09/20 12:00:48;;;;;;;2.85;0.82;;;21.50;36.20;;;;;;5034836;28;20099;-30
2022/09/20 12:03:40;;;;;;;5.03;0.80;;;21.30;59.30;;;;;;5032483;28;20558;-30
2022/09/20 12:06:42;;;;;;;2.13;0.60;;;21.20;59.50;;;;;;5032393;28;20048;-31
2022/09/20 12:09:31;;;;;;;3.10;0.75;;;20.90;57.50;;;;;;4995447;28;20053;-30
2022/09/20 12:11:58;;;;;;;4.03;0.57;;;20.30;30.00;;;;;;5032852;28;20057;-30
2022/09/20 12:14:31;;;;;;;4.78;0.77;;;19.40;25.60;;;;;;5035050;28;20081;-29
2022/09/20 12:16:57;;;;;;;;;;;18.50;8.50;;;;;;5034645;28;20080;-29
2022/09/20 12:19:32;;;;;;;7.57;0.60;;;17.50;57.20;;;;;;5033692;28;20019;-29
2022/09/20 12:21:57;;;;;;;5.63;0.68;;;16.90;73.90;;;;;;5033683;28;20050;-30
2022/09/20 12:24:27;;;;;;;6.45;1.27;;;16.60;8.10;;;;;;5033902;28;20049;-30
2022/09/20 12:26:55;;;;;;;3.88;0.55;;;16.80;1.00;;;;;;5033610;28;20128;-29
2022/09/20 12:29:25;;;;;;;2.63;0.40;;;17.50;1.00;;;;;;5033593;28;20049;-30
2022/09/20 12:31:56;;;;;;;3.33;0.30;;;18.10;1.00;;;;;;5033661;28;20049;-30
2022/09/20 12:34:24;;;;;;;3.88;0.95;;;18.80;1.00;;;;;;5033004;28;20132;-30
2022/09/20 12:36:53;;;;;;;2.67;0.40;;;19.00;1.00;;;;;;5033454;28;20088;-30
2022/09/20 12:39:33;;;;;;;5.28;0.57;;;19.40;16.20;;;;;;5034067;28;20049;-30
2022/09/20 12:42:27;;;;;;;4.97;0.52;;;19.80;4.60;;;;;;5034117;28;20124;-30
2022/09/20 12:45:02;;;;;;;3.70;0.60;;;20.70;1.00;;;;;;5032555;28;20128;-30
2022/09/20 12:47:36;;;;;;;5.45;0.63;;;20.60;1.00;;;;;;5033791;28;20084;-30
2022/09/20 12:52:59;;;;;;;4.97;1.10;;;20.00;1.00;;;;;;5033725;28;20124;-29
2022/09/20 12:55:30;;;;;;;3.90;0.60;;;19.60;8.00;;;;;;5033372;28;20049;-29
2022/09/20 12:58:02;;;;;;;8.00;1.00;;;19.30;1.00;;;;;;5032118;28;20037;-30
2022/09/20 13:00:36;;;;;;;4.75;0.70;;;19.20;16.20;;;;;;5033393;28;20084;-29
2022/09/20 13:03:11;;;;;;;4.85;0.68;;;19.40;23.40;;;;;;5033958;28;20037;-29
2022/09/20 13:05:44;;;;;;;6.75;0.88;;;20.00;21.20;;;;;;5015688;28;20045;-29
2022/09/20 13:08:30;;;;;;;4.50;0.93;;;20.00;99.90;;;;;;5033812;28;20042;-29
2022/09/20 13:11:11;;;;;;;8.60;0.90;;;20.10;99.90;;;;;;5031971;28;20037;-29
2022/09/20 13:13:57;;;;;;;4.00;0.80;;;19.90;99.90;;;;;;5033278;28;20095;-30
2022/09/20 13:16:25;;;;;;;5.15;0.80;;;19.80;99.90;;;;;;5033129;28;20041;-30
2022/09/20 13:19:18;;;;;;;5.38;1.00;;;19.60;99.90;;;;;;5035053;28;20434;-29
2022/09/20 13:21:53;;;;;;;;;;;19.80;99.90;;;;;;5034578;28;20061;-29
2022/09/20 13:24:19;;;;;;;2.63;0.80;;;19.90;99.90;;;;;;5035806;28;19932;-30
2022/09/20 13:26:48;;;;;;;4.47;0.73;;;20.20;99.90;;;;;;5037341;28;20048;-29
2022/09/20 13:29:36;;;;;;;5.88;0.80;;;20.30;99.90;;;;;;5037301;28;20050;-30
2022/09/20 13:32:27;;;;;;;2.30;0.60;;;20.60;99.90;;;;;;5036712;28;20053;-29
2022/09/20 13:35:12;;;;;;;2.85;0.70;;;20.10;40.50;;;;;;5036176;28;20049;-29
2022/09/20 13:37:54;;;;;;;5.50;0.70;;;19.80;99.90;;;;;;5037114;28;20041;-29
2022/09/20 13:40:38;;;;;;;6.72;0.60;;;19.50;93.20;;;;;;5037162;28;20045;-30
2022/09/20 13:43:23;;;;;;;4.40;0.68;;;20.10;89.60;;;;;;5036585;28;20052;-29
2022/09/20 13:45:56;;;;;;;3.95;0.60;;;19.70;1.00;;;;;;5036866;28;20057;-28
2022/09/20 13:48:29;;;;;;;5.35;0.80;;;19.10;17.60;;;;;;5035614;28;20049;-28
2022/09/20 13:50:56;;;;;;;6.85;0.93;;;18.90;66.80;;;;;;5036311;28;20384;-29
2022/09/20 13:53:23;;;;;;;4.53;0.80;;;19.20;76.10;;;;;;5035124;28;20049;-29
2022/09/20 13:55:50;;;;;;;3.85;0.50;;;19.20;53.10;;;;;;5036141;28;20041;-29
2022/09/20 13:58:20;;;;;;;4.65;0.60;;;18.50;13.30;;;;;;5035030;28;20162;-28
2022/09/20 14:00:57;;;;;;;2.72;0.60;;;18.10;76.40;;;;;;5035234;28;20567;-28